sensor_id;sensor_type;location;lat;lon;timestamp;temperature;humidity
43249;DHT22;29216;51.248;6.808;2022-11-03T00:00:26;10.70;5.30
43249;DHT22;29216;51.248;6.808;2022-11-03T00:02:52;10.80;4.10
43249;DHT22;29216;51.248;6.808;2022-11-03T00:05:18;10.80;7.50
43249;DHT22;29216;51.248;6.808;2022-11-03T00:08:03;10.80;5.00
43249;DHT22;29216;51.248;6.808;2022-11-03T00:10:29;10.90;3.30
43249;DHT22;29216;51.248;6.808;2022-11-03T00:12:55;10.90;5.50
43249;DHT22;29216;51.248;6.808;2022-11-03T00:15:21;10.90;5.70
43249;DHT22;29216;51.248;6.808;2022-11-03T00:17:47;10.90;6.20
43249;DHT22;29216;51.248;6.808;2022-11-03T00:20:13;11.00;5.90
43249;DHT22;29216;51.248;6.808;2022-11-03T00:22:38;10.90;10.20
43249;DHT22;29216;51.248;6.808;2022-11-03T00:25:04;11.00;8.90
43249;DHT22;29216;51.248;6.808;2022-11-03T00:27:30;11.00;7.40
43249;DHT22;29216;51.248;6.808;2022-11-03T00:29:56;11.10;7.40
43249;DHT22;29216;51.248;6.808;2022-11-03T00:32:21;11.10;8.90
43249;DHT22;29216;51.248;6.808;2022-11-03T00:34:47;11.00;11.30
43249;DHT22;29216;51.248;6.808;2022-11-03T00:37:13;11.00;12.90
43249;DHT22;29216;51.248;6.808;2022-11-03T00:39:38;11.00;15.40
43249;DHT22;29216;51.248;6.808;2022-11-03T00:42:04;10.90;21.30
43249;DHT22;29216;51.248;6.808;2022-11-03T00:44:30;11.00;20.10
43249;DHT22;29216;51.248;6.808;2022-11-03T00:46:55;10.90;22.80
43249;DHT22;29216;51.248;6.808;2022-11-03T00:49:21;10.90;25.00
43249;DHT22;29216;51.248;6.808;2022-11-03T00:51:47;10.90;23.40
43249;DHT22;29216;51.248;6.808;2022-11-03T00:54:12;11.00;21.20
43249;DHT22;29216;51.248;6.808;2022-11-03T00:56:39;11.00;22.60
43249;DHT22;29216;51.248;6.808;2022-11-03T00:59:07;11.00;24.90
43249;DHT22;29216;51.248;6.808;2022-11-03T01:01:43;11.00;28.10
43249;DHT22;29216;51.248;6.808;2022-11-03T01:04:09;10.90;30.80
43249;DHT22;29216;51.248;6.808;2022-11-03T01:06:55;10.90;30.40
43249;DHT22;29216;51.248;6.808;2022-11-03T01:09:25;11.00;28.40
43249;DHT22;29216;51.248;6.808;2022-11-03T01:14:33;11.00;29.10
43249;DHT22;29216;51.248;6.808;2022-11-03T01:17:00;10.90;32.20
43249;DHT22;29216;51.248;6.808;2022-11-03T01:19:26;10.90;35.30
43249;DHT22;29216;51.248;6.808;2022-11-03T01:21:52;10.80;39.80
43249;DHT22;29216;51.248;6.808;2022-11-03T01:24:19;10.80;40.70
43249;DHT22;29216;51.248;6.808;2022-11-03T01:26:45;10.80;42.70
43249;DHT22;29216;51.248;6.808;2022-11-03T01:29:10;10.90;42.80
43249;DHT22;29216;51.248;6.808;2022-11-03T01:31:36;10.80;45.10
43249;DHT22;29216;51.248;6.808;2022-11-03T01:34:02;10.80;48.50
43249;DHT22;29216;51.248;6.808;2022-11-03T01:36:27;10.70;50.70
43249;DHT22;29216;51.248;6.808;2022-11-03T01:38:55;10.70;50.30
43249;DHT22;29216;51.248;6.808;2022-11-03T01:41:26;10.70;52.40
43249;DHT22;29216;51.248;6.808;2022-11-03T01:49:23;10.50;67.10
43249;DHT22;29216;51.248;6.808;2022-11-03T01:52:01;10.50;71.90
43249;DHT22;29216;51.248;6.808;2022-11-03T01:54:28;10.40;73.10
43249;DHT22;29216;51.248;6.808;2022-11-03T01:56:55;10.40;74.80
43249;DHT22;29216;51.248;6.808;2022-11-03T01:59:22;10.50;74.40
43249;DHT22;29216;51.248;6.808;2022-11-03T02:01:48;10.50;74.70
43249;DHT22;29216;51.248;6.808;2022-11-03T02:04:21;10.50;74.80
43249;DHT22;29216;51.248;6.808;2022-11-03T02:07:02;10.50;77.60
43249;DHT22;29216;51.248;6.808;2022-11-03T02:09:31;10.50;76.90
43249;DHT22;29216;51.248;6.808;2022-11-03T02:11:56;10.50;76.80
43249;DHT22;29216;51.248;6.808;2022-11-03T02:14:31;10.50;78.70
43249;DHT22;29216;51.248;6.808;2022-11-03T02:17:00;10.50;78.80
43249;DHT22;29216;51.248;6.808;2022-11-03T02:19:38;10.50;82.10
43249;DHT22;29216;51.248;6.808;2022-11-03T02:27:22;10.50;87.30
43249;DHT22;29216;51.248;6.808;2022-11-03T02:29:47;10.50;88.50
43249;DHT22;29216;51.248;6.808;2022-11-03T02:32:30;10.50;86.20
43249;DHT22;29216;51.248;6.808;2022-11-03T02:35:17;10.50;88.70
43249;DHT22;29216;51.248;6.808;2022-11-03T02:37:47;10.50;89.50
43249;DHT22;29216;51.248;6.808;2022-11-03T02:40:18;10.50;91.30
43249;DHT22;29216;51.248;6.808;2022-11-03T02:42:49;10.50;91.10
43249;DHT22;29216;51.248;6.808;2022-11-03T02:45:18;10.50;92.90
43249;DHT22;29216;51.248;6.808;2022-11-03T02:47:45;10.50;91.80
43249;DHT22;29216;51.248;6.808;2022-11-03T02:50:12;10.50;92.80
43249;DHT22;29216;51.248;6.808;2022-11-03T02:52:45;10.50;93.00
43249;DHT22;29216;51.248;6.808;2022-11-03T02:55:19;10.60;93.20
43249;DHT22;29216;51.248;6.808;2022-11-03T02:58:05;10.50;92.90
43249;DHT22;29216;51.248;6.808;2022-11-03T03:00:37;10.60;92.70
43249;DHT22;29216;51.248;6.808;2022-11-03T03:03:09;10.60;93.60
43249;DHT22;29216;51.248;6.808;2022-11-03T03:05:36;10.60;93.70
43249;DHT22;29216;51.248;6.808;2022-11-03T03:08:06;10.60;94.70
43249;DHT22;29216;51.248;6.808;2022-11-03T03:10:37;10.60;95.40
43249;DHT22;29216;51.248;6.808;2022-11-03T03:13:06;10.70;93.50
43249;DHT22;29216;51.248;6.808;2022-11-03T03:15:40;10.70;94.00
43249;DHT22;29216;51.248;6.808;2022-11-03T03:18:19;10.80;92.80
43249;DHT22;29216;51.248;6.808;2022-11-03T03:21:03;10.80;93.60
43249;DHT22;29216;51.248;6.808;2022-11-03T03:23:35;10.80;94.60
43249;DHT22;29216;51.248;6.808;2022-11-03T03:26:13;10.80;95.30
43249;DHT22;29216;51.248;6.808;2022-11-03T03:31:15;10.80;94.30
43249;DHT22;29216;51.248;6.808;2022-11-03T03:33:43;10.80;95.80
43249;DHT22;29216;51.248;6.808;2022-11-03T03:36:13;10.80;95.30
43249;DHT22;29216;51.248;6.808;2022-11-03T03:38:43;10.80;96.70
43249;DHT22;29216;51.248;6.808;2022-11-03T03:41:13;10.80;96.30
43249;DHT22;29216;51.248;6.808;2022-11-03T03:43:47;10.90;96.00
43249;DHT22;29216;51.248;6.808;2022-11-03T03:46:14;10.90;95.40
43249;DHT22;29216;51.248;6.808;2022-11-03T03:48:40;11.00;95.10
43249;DHT22;29216;51.248;6.808;2022-11-03T03:51:07;11.00;94.50
43249;DHT22;29216;51.248;6.808;2022-11-03T03:53:33;11.00;94.80
43249;DHT22;29216;51.248;6.808;2022-11-03T03:55:59;11.00;95.20
43249;DHT22;29216;51.248;6.808;2022-11-03T03:58:25;11.00;95.40
43249;DHT22;29216;51.248;6.808;2022-11-03T04:00:50;11.10;95.10
43249;DHT22;29216;51.248;6.808;2022-11-03T04:03:18;11.10;94.90
43249;DHT22;29216;51.248;6.808;2022-11-03T04:05:45;11.10;95.60
43249;DHT22;29216;51.248;6.808;2022-11-03T04:08:11;11.10;95.70
43249;DHT22;29216;51.248;6.808;2022-11-03T04:10:37;11.20;93.70
43249;DHT22;29216;51.248;6.808;2022-11-03T04:13:03;11.30;92.30
43249;DHT22;29216;51.248;6.808;2022-11-03T04:15:48;11.20;92.90
43249;DHT22;29216;51.248;6.808;2022-11-03T04:18:17;11.30;90.70
43249;DHT22;29216;51.248;6.808;2022-11-03T04:21:02;11.20;91.00
43249;DHT22;29216;51.248;6.808;2022-11-03T04:23:46;11.20;92.10
43249;DHT22;29216;51.248;6.808;2022-11-03T04:26:14;11.20;92.80
43249;DHT22;29216;51.248;6.808;2022-11-03T04:28:40;11.20;93.40
43249;DHT22;29216;51.248;6.808;2022-11-03T04:31:12;11.20;95.60
43249;DHT22;29216;51.248;6.808;2022-11-03T04:33:37;11.20;95.50
43249;DHT22;29216;51.248;6.808;2022-11-03T04:36:14;11.20;93.50
43249;DHT22;29216;51.248;6.808;2022-11-03T04:38:42;11.30;91.70
43249;DHT22;29216;51.248;6.808;2022-11-03T04:41:34;11.30;90.30
43249;DHT22;29216;51.248;6.808;2022-11-03T04:44:06;11.30;91.20
43249;DHT22;29216;51.248;6.808;2022-11-03T04:46:35;11.40;90.50
43249;DHT22;29216;51.248;6.808;2022-11-03T04:49:00;11.30;90.70
43249;DHT22;29216;51.248;6.808;2022-11-03T04:51:30;11.30;90.10
43249;DHT22;29216;51.248;6.808;2022-11-03T04:54:12;11.40;90.20
43249;DHT22;29216;51.248;6.808;2022-11-03T04:56:40;11.30;91.10
43249;DHT22;29216;51.248;6.808;2022-11-03T04:59:10;11.30;91.50
43249;DHT22;29216;51.248;6.808;2022-11-03T05:01:39;11.30;91.30
43249;DHT22;29216;51.248;6.808;2022-11-03T05:04:16;11.40;91.60
43249;DHT22;29216;51.248;6.808;2022-11-03T05:06:49;11.30;91.70
43249;DHT22;29216;51.248;6.808;2022-11-03T05:09:28;11.30;92.30
43249;DHT22;29216;51.248;6.808;2022-11-03T05:11:54;11.30;92.10
43249;DHT22;29216;51.248;6.808;2022-11-03T05:14:25;11.30;93.00
43249;DHT22;29216;51.248;6.808;2022-11-03T05:16:52;11.20;94.10
43249;DHT22;29216;51.248;6.808;2022-11-03T05:19:29;11.20;94.00
43249;DHT22;29216;51.248;6.808;2022-11-03T05:22:00;11.30;93.20
43249;DHT22;29216;51.248;6.808;2022-11-03T05:24:27;11.30;94.40
43249;DHT22;29216;51.248;6.808;2022-11-03T05:26:54;11.20;94.70
43249;DHT22;29216;51.248;6.808;2022-11-03T05:29:31;11.30;93.60
43249;DHT22;29216;51.248;6.808;2022-11-03T05:31:59;11.30;94.20
43249;DHT22;29216;51.248;6.808;2022-11-03T05:34:42;11.30;93.50
43249;DHT22;29216;51.248;6.808;2022-11-03T05:39:57;11.30;93.00
43249;DHT22;29216;51.248;6.808;2022-11-03T05:42:34;11.40;91.40
43249;DHT22;29216;51.248;6.808;2022-11-03T05:47:39;11.30;93.50
43249;DHT22;29216;51.248;6.808;2022-11-03T05:50:26;11.30;94.10
43249;DHT22;29216;51.248;6.808;2022-11-03T05:53:18;11.30;94.40
43249;DHT22;29216;51.248;6.808;2022-11-03T05:55:50;11.30;94.70
43249;DHT22;29216;51.248;6.808;2022-11-03T05:58:49;11.30;94.20
43249;DHT22;29216;51.248;6.808;2022-11-03T06:01:33;11.30;94.30
43249;DHT22;29216;51.248;6.808;2022-11-03T06:04:28;11.30;94.80
43249;DHT22;29216;51.248;6.808;2022-11-03T06:09:40;11.30;94.80
43249;DHT22;29216;51.248;6.808;2022-11-03T06:12:09;11.30;94.60
43249;DHT22;29216;51.248;6.808;2022-11-03T06:14:36;11.30;94.80
43249;DHT22;29216;51.248;6.808;2022-11-03T06:17:04;11.30;94.80
43249;DHT22;29216;51.248;6.808;2022-11-03T06:19:37;11.30;95.00
43249;DHT22;29216;51.248;6.808;2022-11-03T06:22:23;11.20;95.30
43249;DHT22;29216;51.248;6.808;2022-11-03T06:24:53;11.20;96.20
43249;DHT22;29216;51.248;6.808;2022-11-03T06:27:24;11.30;95.70
43249;DHT22;29216;51.248;6.808;2022-11-03T06:30:00;11.20;95.80
43249;DHT22;29216;51.248;6.808;2022-11-03T06:32:26;11.30;95.40
43249;DHT22;29216;51.248;6.808;2022-11-03T06:34:56;11.30;95.20
43249;DHT22;29216;51.248;6.808;2022-11-03T06:39:57;11.20;96.10
43249;DHT22;29216;51.248;6.808;2022-11-03T06:42:25;11.20;97.10
43249;DHT22;29216;51.248;6.808;2022-11-03T06:44:52;11.30;96.40
43249;DHT22;29216;51.248;6.808;2022-11-03T06:47:26;11.30;95.90
43249;DHT22;29216;51.248;6.808;2022-11-03T06:49:57;11.30;96.60
43249;DHT22;29216;51.248;6.808;2022-11-03T06:52:32;11.30;95.10
43249;DHT22;29216;51.248;6.808;2022-11-03T06:57:38;11.30;95.50
43249;DHT22;29216;51.248;6.808;2022-11-03T07:00:14;11.40;94.70
43249;DHT22;29216;51.248;6.808;2022-11-03T07:05:29;11.40;94.90
43249;DHT22;29216;51.248;6.808;2022-11-03T07:07:58;11.30;95.00
43249;DHT22;29216;51.248;6.808;2022-11-03T07:10:30;11.40;94.50
43249;DHT22;29216;51.248;6.808;2022-11-03T07:12:59;11.40;93.90
43249;DHT22;29216;51.248;6.808;2022-11-03T07:15:29;11.40;93.70
43249;DHT22;29216;51.248;6.808;2022-11-03T07:17:56;11.50;93.70
43249;DHT22;29216;51.248;6.808;2022-11-03T07:20:22;11.50;93.00
43249;DHT22;29216;51.248;6.808;2022-11-03T07:22:49;11.50;93.00
43249;DHT22;29216;51.248;6.808;2022-11-03T07:25:20;11.60;92.30
43249;DHT22;29216;51.248;6.808;2022-11-03T07:27:51;11.70;89.60
43249;DHT22;29216;51.248;6.808;2022-11-03T07:30:44;11.80;85.10
43249;DHT22;29216;51.248;6.808;2022-11-03T07:33:23;12.00;79.60
43249;DHT22;29216;51.248;6.808;2022-11-03T07:35:50;12.30;67.50
43249;DHT22;29216;51.248;6.808;2022-11-03T07:38:21;12.50;59.20
43249;DHT22;29216;51.248;6.808;2022-11-03T07:40:49;12.70;40.90
43249;DHT22;29216;51.248;6.808;2022-11-03T07:43:27;12.90;32.20
43249;DHT22;29216;51.248;6.808;2022-11-03T07:45:54;13.00;34.00
43249;DHT22;29216;51.248;6.808;2022-11-03T07:50:55;13.30;14.80
43249;DHT22;29216;51.248;6.808;2022-11-03T07:53:35;13.40;10.00
43249;DHT22;29216;51.248;6.808;2022-11-03T07:56:25;13.40;8.40
43249;DHT22;29216;51.248;6.808;2022-11-03T08:01:40;13.50;1.00
43249;DHT22;29216;51.248;6.808;2022-11-03T08:04:09;13.60;1.00
43249;DHT22;29216;51.248;6.808;2022-11-03T08:06:36;13.60;4.30
43249;DHT22;29216;51.248;6.808;2022-11-03T08:09:03;13.60;6.10
43249;DHT22;29216;51.248;6.808;2022-11-03T08:11:31;13.70;1.00
43249;DHT22;29216;51.248;6.808;2022-11-03T08:13:57;13.70;1.00
43249;DHT22;29216;51.248;6.808;2022-11-03T08:16:22;13.60;1.00
43249;DHT22;29216;51.248;6.808;2022-11-03T08:18:48;13.60;1.00
43249;DHT22;29216;51.248;6.808;2022-11-03T08:21:14;13.50;1.80
43249;DHT22;29216;51.248;6.808;2022-11-03T08:23:41;13.50;7.30
43249;DHT22;29216;51.248;6.808;2022-11-03T08:26:07;13.50;7.10
43249;DHT22;29216;51.248;6.808;2022-11-03T08:28:34;13.50;12.80
43249;DHT22;29216;51.248;6.808;2022-11-03T08:31:00;13.50;18.00
43249;DHT22;29216;51.248;6.808;2022-11-03T08:33:30;13.50;12.40
43249;DHT22;29216;51.248;6.808;2022-11-03T08:35:56;13.50;14.90
43249;DHT22;29216;51.248;6.808;2022-11-03T08:38:22;13.40;20.90
43249;DHT22;29216;51.248;6.808;2022-11-03T08:40:48;13.50;21.10
43249;DHT22;29216;51.248;6.808;2022-11-03T08:43:13;13.50;15.30
43249;DHT22;29216;51.248;6.808;2022-11-03T08:45:39;13.60;12.80
43249;DHT22;29216;51.248;6.808;2022-11-03T08:48:05;13.70;8.50
43249;DHT22;29216;51.248;6.808;2022-11-03T08:50:30;13.70;3.10
43249;DHT22;29216;51.248;6.808;2022-11-03T08:52:56;13.80;4.30
43249;DHT22;29216;51.248;6.808;2022-11-03T08:55:22;13.90;1.00
43249;DHT22;29216;51.248;6.808;2022-11-03T08:57:47;14.00;1.00
43249;DHT22;29216;51.248;6.808;2022-11-03T09:00:13;14.00;1.00
43249;DHT22;29216;51.248;6.808;2022-11-03T09:02:42;14.10;1.00
43249;DHT22;29216;51.248;6.808;2022-11-03T09:05:08;14.10;1.00
43249;DHT22;29216;51.248;6.808;2022-11-03T09:07:34;14.10;1.00
43249;DHT22;29216;51.248;6.808;2022-11-03T09:09:59;14.20;1.00
43249;DHT22;29216;51.248;6.808;2022-11-03T09:12:25;14.20;1.00
43249;DHT22;29216;51.248;6.808;2022-11-03T09:14:50;14.30;1.00
43249;DHT22;29216;51.248;6.808;2022-11-03T09:17:16;14.30;1.00
43249;DHT22;29216;51.248;6.808;2022-11-03T09:19:42;14.40;1.00
43249;DHT22;29216;51.248;6.808;2022-11-03T09:22:07;14.40;1.00
43249;DHT22;29216;51.248;6.808;2022-11-03T09:24:33;14.50;1.00
43249;DHT22;29216;51.248;6.808;2022-11-03T09:26:59;14.60;1.00
43249;DHT22;29216;51.248;6.808;2022-11-03T09:29:24;14.60;1.00
43249;DHT22;29216;51.248;6.808;2022-11-03T09:31:50;14.60;1.00
43249;DHT22;29216;51.248;6.808;2022-11-03T09:34:15;14.60;1.00
43249;DHT22;29216;51.248;6.808;2022-11-03T09:36:41;14.70;1.00
43249;DHT22;29216;51.248;6.808;2022-11-03T09:39:06;14.70;1.00
43249;DHT22;29216;51.248;6.808;2022-11-03T09:41:32;14.70;1.00
43249;DHT22;29216;51.248;6.808;2022-11-03T09:43:59;14.60;1.00
43249;DHT22;29216;51.248;6.808;2022-11-03T09:46:27;14.70;1.00
43249;DHT22;29216;51.248;6.808;2022-11-03T09:48:53;14.70;1.00
43249;DHT22;29216;51.248;6.808;2022-11-03T09:51:21;14.70;1.00
43249;DHT22;29216;51.248;6.808;2022-11-03T09:53:47;14.80;1.00
43249;DHT22;29216;51.248;6.808;2022-11-03T09:56:14;14.90;1.00
43249;DHT22;29216;51.248;6.808;2022-11-03T09:58:40;14.90;1.00
43249;DHT22;29216;51.248;6.808;2022-11-03T10:01:09;14.90;1.00
43249;DHT22;29216;51.248;6.808;2022-11-03T10:03:35;15.00;1.00
43249;DHT22;29216;51.248;6.808;2022-11-03T10:06:00;15.10;1.00
43249;DHT22;29216;51.248;6.808;2022-11-03T10:08:29;15.10;1.00
43249;DHT22;29216;51.248;6.808;2022-11-03T10:10:55;15.20;1.00
43249;DHT22;29216;51.248;6.808;2022-11-03T10:13:42;15.20;1.00
43249;DHT22;29216;51.248;6.808;2022-11-03T10:16:11;15.30;1.00
43249;DHT22;29216;51.248;6.808;2022-11-03T10:18:39;15.30;1.00
43249;DHT22;29216;51.248;6.808;2022-11-03T10:23:45;15.20;1.00
43249;DHT22;29216;51.248;6.808;2022-11-03T10:26:12;15.20;1.00
43249;DHT22;29216;51.248;6.808;2022-11-03T10:28:59;15.30;1.00
43249;DHT22;29216;51.248;6.808;2022-11-03T10:31:35;15.30;1.00
43249;DHT22;29216;51.248;6.808;2022-11-03T10:34:02;15.30;1.00
43249;DHT22;29216;51.248;6.808;2022-11-03T10:36:29;15.40;1.00
43249;DHT22;29216;51.248;6.808;2022-11-03T10:38:56;15.40;1.00
43249;DHT22;29216;51.248;6.808;2022-11-03T10:41:25;15.50;1.00
43249;DHT22;29216;51.248;6.808;2022-11-03T10:46:36;15.50;1.00
43249;DHT22;29216;51.248;6.808;2022-11-03T10:49:11;15.50;1.00
43249;DHT22;29216;51.248;6.808;2022-11-03T10:51:40;15.50;1.00
43249;DHT22;29216;51.248;6.808;2022-11-03T10:54:11;15.60;1.00
43249;DHT22;29216;51.248;6.808;2022-11-03T10:56:37;15.70;1.00
43249;DHT22;29216;51.248;6.808;2022-11-03T10:59:03;15.70;1.00
43249;DHT22;29216;51.248;6.808;2022-11-03T11:01:29;15.80;1.00
43249;DHT22;29216;51.248;6.808;2022-11-03T11:03:54;15.90;1.00
43249;DHT22;29216;51.248;6.808;2022-11-03T11:08:49;15.90;1.00
43249;DHT22;29216;51.248;6.808;2022-11-03T11:11:16;16.00;1.00
43249;DHT22;29216;51.248;6.808;2022-11-03T11:13:43;16.10;1.00
43249;DHT22;29216;51.248;6.808;2022-11-03T11:19:11;16.20;1.00
43249;DHT22;29216;51.248;6.808;2022-11-03T11:24:03;16.10;1.00
43249;DHT22;29216;51.248;6.808;2022-11-03T11:26:29;16.20;1.00
43249;DHT22;29216;51.248;6.808;2022-11-03T11:31:43;16.20;1.00
43249;DHT22;29216;51.248;6.808;2022-11-03T11:42:17;16.00;1.00
43249;DHT22;29216;51.248;6.808;2022-11-03T11:52:33;15.90;1.00
43249;DHT22;29216;51.248;6.808;2022-11-03T11:55:01;15.90;1.00
43249;DHT22;29216;51.248;6.808;2022-11-03T11:57:29;15.90;1.00
43249;DHT22;29216;51.248;6.808;2022-11-03T11:59:58;15.80;1.00
43249;DHT22;29216;51.248;6.808;2022-11-03T12:02:28;15.80;1.00
43249;DHT22;29216;51.248;6.808;2022-11-03T12:04:57;15.80;1.00
43249;DHT22;29216;51.248;6.808;2022-11-03T12:07:35;15.80;1.00
43249;DHT22;29216;51.248;6.808;2022-11-03T12:10:23;15.70;1.00
43249;DHT22;29216;51.248;6.808;2022-11-03T12:12:52;15.70;1.00
43249;DHT22;29216;51.248;6.808;2022-11-03T12:15:53;15.60;1.00
43249;DHT22;29216;51.248;6.808;2022-11-03T12:18:41;15.50;1.00
43249;DHT22;29216;51.248;6.808;2022-11-03T12:21:12;15.40;1.00
43249;DHT22;29216;51.248;6.808;2022-11-03T12:23:56;15.40;1.00
43249;DHT22;29216;51.248;6.808;2022-11-03T12:28:54;15.40;1.00
43249;DHT22;29216;51.248;6.808;2022-11-03T12:31:19;15.40;1.00
43249;DHT22;29216;51.248;6.808;2022-11-03T12:33:45;15.50;1.00
43249;DHT22;29216;51.248;6.808;2022-11-03T12:36:11;15.50;1.00
43249;DHT22;29216;51.248;6.808;2022-11-03T12:38:36;15.60;1.00
43249;DHT22;29216;51.248;6.808;2022-11-03T12:41:03;15.60;1.00
43249;DHT22;29216;51.248;6.808;2022-11-03T12:43:48;15.60;1.00
43249;DHT22;29216;51.248;6.808;2022-11-03T12:46:18;15.60;1.00
43249;DHT22;29216;51.248;6.808;2022-11-03T12:48:44;15.50;1.00
43249;DHT22;29216;51.248;6.808;2022-11-03T12:51:19;15.50;1.00
43249;DHT22;29216;51.248;6.808;2022-11-03T12:53:45;15.50;1.00
43249;DHT22;29216;51.248;6.808;2022-11-03T12:56:13;15.50;1.00
43249;DHT22;29216;51.248;6.808;2022-11-03T12:58:39;15.50;1.00
43249;DHT22;29216;51.248;6.808;2022-11-03T13:01:05;15.50;1.00
43249;DHT22;29216;51.248;6.808;2022-11-03T13:03:31;15.50;1.00
43249;DHT22;29216;51.248;6.808;2022-11-03T13:05:58;15.60;1.00
43249;DHT22;29216;51.248;6.808;2022-11-03T13:08:24;15.50;1.00
43249;DHT22;29216;51.248;6.808;2022-11-03T13:10:50;15.50;1.00
43249;DHT22;29216;51.248;6.808;2022-11-03T13:13:17;15.40;1.00
43249;DHT22;29216;51.248;6.808;2022-11-03T13:15:43;15.30;1.00
43249;DHT22;29216;51.248;6.808;2022-11-03T13:18:08;15.30;1.00
43249;DHT22;29216;51.248;6.808;2022-11-03T13:20:34;15.30;1.00
43249;DHT22;29216;51.248;6.808;2022-11-03T13:23:01;15.30;1.00
43249;DHT22;29216;51.248;6.808;2022-11-03T13:25:27;15.30;1.00
43249;DHT22;29216;51.248;6.808;2022-11-03T13:27:53;15.30;1.00
43249;DHT22;29216;51.248;6.808;2022-11-03T13:30:24;15.20;1.00
43249;DHT22;29216;51.248;6.808;2022-11-03T13:32:50;15.30;1.00
43249;DHT22;29216;51.248;6.808;2022-11-03T13:35:16;15.30;1.00
43249;DHT22;29216;51.248;6.808;2022-11-03T13:37:42;15.30;1.00
43249;DHT22;29216;51.248;6.808;2022-11-03T13:40:09;15.20;1.00
43249;DHT22;29216;51.248;6.808;2022-11-03T13:42:36;15.30;1.00
43249;DHT22;29216;51.248;6.808;2022-11-03T13:45:01;15.30;1.00
43249;DHT22;29216;51.248;6.808;2022-11-03T13:47:27;15.30;1.00
43249;DHT22;29216;51.248;6.808;2022-11-03T13:49:52;15.20;1.00
43249;DHT22;29216;51.248;6.808;2022-11-03T13:52:18;15.20;1.00
43249;DHT22;29216;51.248;6.808;2022-11-03T13:54:44;15.10;1.00
43249;DHT22;29216;51.248;6.808;2022-11-03T13:57:10;15.10;1.00
43249;DHT22;29216;51.248;6.808;2022-11-03T13:59:36;15.10;1.00
43249;DHT22;29216;51.248;6.808;2022-11-03T14:02:03;15.00;1.00
43249;DHT22;29216;51.248;6.808;2022-11-03T14:04:28;14.90;1.00
43249;DHT22;29216;51.248;6.808;2022-11-03T14:06:54;14.90;1.00
43249;DHT22;29216;51.248;6.808;2022-11-03T14:09:20;14.90;1.00
43249;DHT22;29216;51.248;6.808;2022-11-03T14:11:46;14.90;1.00
43249;DHT22;29216;51.248;6.808;2022-11-03T14:14:30;14.80;1.00
43249;DHT22;29216;51.248;6.808;2022-11-03T14:16:55;14.90;1.00
43249;DHT22;29216;51.248;6.808;2022-11-03T14:19:21;14.80;1.00
43249;DHT22;29216;51.248;6.808;2022-11-03T14:21:48;14.80;1.00
43249;DHT22;29216;51.248;6.808;2022-11-03T14:24:14;14.70;1.00
43249;DHT22;29216;51.248;6.808;2022-11-03T14:26:39;14.70;1.00
43249;DHT22;29216;51.248;6.808;2022-11-03T14:29:05;14.70;1.00
43249;DHT22;29216;51.248;6.808;2022-11-03T14:31:31;14.70;1.00
43249;DHT22;29216;51.248;6.808;2022-11-03T14:33:57;14.70;1.00
43249;DHT22;29216;51.248;6.808;2022-11-03T14:36:22;14.60;1.00
43249;DHT22;29216;51.248;6.808;2022-11-03T14:38:48;14.50;1.00
43249;DHT22;29216;51.248;6.808;2022-11-03T14:41:13;14.40;1.00
43249;DHT22;29216;51.248;6.808;2022-11-03T14:43:58;14.20;1.00
43249;DHT22;29216;51.248;6.808;2022-11-03T14:46:23;14.00;1.00
43249;DHT22;29216;51.248;6.808;2022-11-03T14:48:49;13.80;1.00
43249;DHT22;29216;51.248;6.808;2022-11-03T14:51:14;13.60;10.80
43249;DHT22;29216;51.248;6.808;2022-11-03T14:53:40;13.50;26.00
43249;DHT22;29216;51.248;6.808;2022-11-03T14:56:06;13.40;36.60
43249;DHT22;29216;51.248;6.808;2022-11-03T14:58:32;13.20;45.60
43249;DHT22;29216;51.248;6.808;2022-11-03T15:00:57;13.10;56.20
43249;DHT22;29216;51.248;6.808;2022-11-03T15:03:23;13.00;60.20
43249;DHT22;29216;51.248;6.808;2022-11-03T15:05:49;12.90;82.90
43249;DHT22;29216;51.248;6.808;2022-11-03T15:08:18;12.80;90.20
43249;DHT22;29216;51.248;6.808;2022-11-03T15:10:44;12.70;90.00
43249;DHT22;29216;51.248;6.808;2022-11-03T15:13:10;12.60;96.50
43249;DHT22;29216;51.248;6.808;2022-11-03T15:15:35;12.50;99.40
43249;DHT22;29216;51.248;6.808;2022-11-03T15:18:02;12.40;99.90
43249;DHT22;29216;51.248;6.808;2022-11-03T15:20:28;12.30;99.90
43249;DHT22;29216;51.248;6.808;2022-11-03T15:22:53;12.20;99.90
43249;DHT22;29216;51.248;6.808;2022-11-03T15:25:19;12.10;99.90
43249;DHT22;29216;51.248;6.808;2022-11-03T15:27:45;12.10;99.90
43249;DHT22;29216;51.248;6.808;2022-11-03T15:30:11;12.00;99.90
43249;DHT22;29216;51.248;6.808;2022-11-03T15:32:36;11.90;99.90
43249;DHT22;29216;51.248;6.808;2022-11-03T15:35:03;11.80;99.90
43249;DHT22;29216;51.248;6.808;2022-11-03T15:37:29;11.80;99.90
43249;DHT22;29216;51.248;6.808;2022-11-03T15:39:54;11.70;99.90
43249;DHT22;29216;51.248;6.808;2022-11-03T15:42:20;11.60;99.90
43249;DHT22;29216;51.248;6.808;2022-11-03T15:44:46;11.60;99.90
43249;DHT22;29216;51.248;6.808;2022-11-03T15:47:11;11.60;99.90
43249;DHT22;29216;51.248;6.808;2022-11-03T15:49:37;11.60;99.90
43249;DHT22;29216;51.248;6.808;2022-11-03T15:52:03;11.50;99.90
43249;DHT22;29216;51.248;6.808;2022-11-03T15:54:28;11.50;99.90
43249;DHT22;29216;51.248;6.808;2022-11-03T15:56:54;11.50;99.90
43249;DHT22;29216;51.248;6.808;2022-11-03T15:59:19;11.50;99.90
43249;DHT22;29216;51.248;6.808;2022-11-03T16:01:45;11.50;99.90
43249;DHT22;29216;51.248;6.808;2022-11-03T16:04:11;11.40;99.90
43249;DHT22;29216;51.248;6.808;2022-11-03T16:06:36;11.50;99.90
43249;DHT22;29216;51.248;6.808;2022-11-03T16:09:03;11.50;99.90
43249;DHT22;29216;51.248;6.808;2022-11-03T16:11:28;11.40;99.90
43249;DHT22;29216;51.248;6.808;2022-11-03T16:13:54;11.40;99.90
43249;DHT22;29216;51.248;6.808;2022-11-03T16:16:19;11.40;99.90
43249;DHT22;29216;51.248;6.808;2022-11-03T16:18:45;11.40;99.90
43249;DHT22;29216;51.248;6.808;2022-11-03T16:21:12;11.40;99.90
43249;DHT22;29216;51.248;6.808;2022-11-03T16:23:38;11.40;99.90
43249;DHT22;29216;51.248;6.808;2022-11-03T16:26:03;11.30;99.90
43249;DHT22;29216;51.248;6.808;2022-11-03T16:28:30;11.30;99.90
43249;DHT22;29216;51.248;6.808;2022-11-03T16:30:55;11.30;99.90
43249;DHT22;29216;51.248;6.808;2022-11-03T16:33:21;11.30;99.90
43249;DHT22;29216;51.248;6.808;2022-11-03T16:35:47;11.30;99.90
43249;DHT22;29216;51.248;6.808;2022-11-03T16:38:13;11.30;99.90
43249;DHT22;29216;51.248;6.808;2022-11-03T16:40:40;11.30;99.90
43249;DHT22;29216;51.248;6.808;2022-11-03T16:43:06;11.30;99.90
43249;DHT22;29216;51.248;6.808;2022-11-03T16:45:42;11.30;99.90
43249;DHT22;29216;51.248;6.808;2022-11-03T16:48:10;11.30;99.90
43249;DHT22;29216;51.248;6.808;2022-11-03T16:50:36;11.30;99.90
43249;DHT22;29216;51.248;6.808;2022-11-03T16:53:01;11.30;99.90
43249;DHT22;29216;51.248;6.808;2022-11-03T16:55:36;11.30;99.90
43249;DHT22;29216;51.248;6.808;2022-11-03T16:58:02;11.30;99.90
43249;DHT22;29216;51.248;6.808;2022-11-03T17:00:27;11.20;99.90